createdAt,value
2023-06-11T04:15:24.299Z,23.71
2023-06-11T04:16:24.392Z,23.66
2023-06-11T04:17:24.294Z,23.67
2023-06-11T04:18:24.243Z,23.72
2023-06-11T04:19:24.235Z,23.71
2023-06-11T04:20:24.304Z,23.71
2023-06-11T04:21:24.238Z,23.75
2023-06-11T04:22:24.248Z,23.77
2023-06-11T04:23:24.217Z,23.75
2023-06-11T04:24:24.288Z,23.84
2023-06-11T04:25:24.225Z,23.85
2023-06-11T04:26:24.195Z,23.81
2023-06-11T04:27:24.235Z,23.79
2023-06-11T04:28:24.198Z,23.96
2023-06-11T04:29:24.213Z,23.90
2023-06-11T04:30:24.227Z,23.96
2023-06-11T04:31:24.214Z,23.92
2023-06-11T04:32:24.244Z,23.97
2023-06-11T04:33:24.171Z,23.94
2023-06-11T04:34:24.225Z,23.97
2023-06-11T04:35:24.213Z,24.03
2023-06-11T04:36:24.172Z,24.02
2023-06-11T04:37:24.169Z,24.11
2023-06-11T04:38:24.168Z,24.09
2023-06-11T04:39:24.171Z,24.11
2023-06-11T04:40:24.185Z,24.09
2023-06-11T04:41:24.192Z,24.12
2023-06-11T04:42:24.171Z,24.12
2023-06-11T04:43:24.156Z,24.15
2023-06-11T04:44:24.162Z,24.12
2023-06-11T04:45:24.170Z,24.09
2023-06-11T04:46:24.222Z,24.24
2023-06-11T04:47:24.224Z,24.24
2023-06-11T04:48:24.182Z,24.24
2023-06-11T04:49:24.143Z,24.26
2023-06-11T04:50:24.146Z,24.19
2023-06-11T04:51:24.173Z,24.22
2023-06-11T04:52:24.139Z,24.34
2023-06-11T04:53:24.211Z,24.30
2023-06-11T04:54:24.163Z,24.32
2023-06-11T04:55:24.144Z,24.34
2023-06-11T04:56:24.158Z,24.37
2023-06-11T04:57:24.137Z,24.34
2023-06-11T04:58:24.234Z,24.45
2023-06-11T04:59:24.158Z,24.37
2023-06-11T05:00:24.126Z,24.44
2023-06-11T05:01:24.184Z,24.44
2023-06-11T05:02:24.287Z,24.49
2023-06-11T05:03:24.141Z,24.45
2023-06-11T05:04:24.177Z,24.45
2023-06-11T05:05:24.259Z,24.45
2023-06-11T05:06:24.167Z,24.44
2023-06-11T05:07:24.152Z,24.64
2023-06-11T05:08:24.141Z,24.58
2023-06-11T05:09:24.152Z,24.63
2023-06-11T05:10:24.124Z,24.64
2023-06-11T05:11:24.132Z,24.78
2023-06-11T05:12:24.130Z,24.70
2023-06-11T05:13:24.162Z,24.74
2023-06-11T05:14:24.137Z,24.74
2023-06-11T05:15:24.124Z,24.83
2023-06-11T05:16:24.200Z,24.77
2023-06-11T05:17:24.146Z,24.87
2023-06-11T05:18:24.135Z,24.92
2023-06-11T05:19:24.148Z,24.93
2023-06-11T05:20:24.126Z,24.90
2023-06-11T05:21:24.145Z,25.02
2023-06-11T05:22:24.119Z,25.04
2023-06-11T05:23:24.110Z,25.01
2023-06-11T05:24:24.164Z,25.08
2023-06-11T05:25:24.117Z,25.07
2023-06-11T05:26:24.097Z,25.05
2023-06-11T05:27:24.104Z,25.07
2023-06-11T05:28:24.131Z,25.19
2023-06-11T05:29:24.126Z,25.26
2023-06-11T05:30:24.096Z,25.22
2023-06-11T05:31:24.127Z,25.26
2023-06-11T05:32:24.213Z,25.27
2023-06-11T05:33:24.112Z,25.30
2023-06-11T05:34:24.130Z,25.32
2023-06-11T05:35:24.135Z,25.37
2023-06-11T05:36:24.098Z,25.44
2023-06-11T05:37:24.087Z,25.39
2023-06-11T05:38:24.120Z,25.42
2023-06-11T05:39:24.091Z,25.49
2023-06-11T05:40:24.093Z,25.57
2023-06-11T05:41:24.091Z,25.63
2023-06-11T05:42:24.184Z,25.54
2023-06-11T05:43:24.110Z,25.57
2023-06-11T05:44:24.086Z,25.57
2023-06-11T05:45:24.099Z,25.71
2023-06-11T05:46:24.158Z,25.75
2023-06-11T05:47:24.293Z,25.75
2023-06-11T05:48:24.199Z,25.78
2023-06-11T05:49:24.091Z,25.76
2023-06-11T05:50:24.086Z,25.81
2023-06-11T05:51:24.198Z,25.84
2023-06-11T05:52:24.084Z,25.85
2023-06-11T05:53:24.108Z,25.88
2023-06-11T05:54:24.096Z,25.93
2023-06-11T05:55:24.076Z,25.93
2023-06-11T05:56:24.104Z,25.97
2023-06-11T05:57:24.080Z,26.01
2023-06-11T05:58:24.082Z,26.01
2023-06-11T05:59:24.080Z,26.04
2023-06-11T06:00:24.080Z,26.09
2023-06-11T06:01:24.094Z,26.15
2023-06-11T06:02:24.225Z,26.07
2023-06-11T06:03:24.328Z,26.23
2023-06-11T06:04:24.151Z,26.26
2023-06-11T06:05:24.108Z,26.26
2023-06-11T06:06:24.100Z,26.35
2023-06-11T06:07:24.094Z,26.32
2023-06-11T06:08:24.090Z,26.39
2023-06-11T06:09:24.069Z,26.39
2023-06-11T06:10:24.106Z,26.32
2023-06-11T06:11:24.097Z,26.32
2023-06-11T06:12:24.070Z,26.39
2023-06-11T06:13:24.155Z,26.47
2023-06-11T06:14:24.085Z,26.53
2023-06-11T06:15:24.097Z,26.54
2023-06-11T06:16:26.717Z,26.56
2023-06-11T06:17:24.331Z,26.54
2023-06-11T06:18:24.113Z,26.57
2023-06-11T06:19:24.088Z,26.64
2023-06-11T06:20:24.101Z,26.69
2023-06-11T06:21:24.075Z,26.76
2023-06-11T06:22:24.113Z,26.71
2023-06-11T06:23:24.091Z,26.81
2023-06-11T06:24:24.222Z,26.79
2023-06-11T06:25:24.066Z,26.89
2023-06-11T06:26:24.112Z,26.84
2023-06-11T06:27:24.104Z,26.87
2023-06-11T06:28:24.089Z,26.97
2023-06-11T06:29:24.121Z,26.96
2023-06-11T06:30:24.105Z,27.00
2023-06-11T06:31:24.465Z,27.05
2023-06-11T06:32:24.129Z,27.09
2023-06-11T06:33:24.127Z,27.06
2023-06-11T06:34:24.128Z,27.08
2023-06-11T06:35:24.139Z,27.11
2023-06-11T06:36:24.108Z,27.24
2023-06-11T06:37:24.116Z,27.26
2023-06-11T06:38:24.100Z,27.24
2023-06-11T06:39:24.186Z,27.31
2023-06-11T06:40:24.272Z,27.31
2023-06-11T06:41:24.118Z,27.28
2023-06-11T06:42:24.111Z,27.37
2023-06-11T06:43:24.077Z,27.43
2023-06-11T06:44:24.079Z,27.46
2023-06-11T06:45:24.086Z,27.46
2023-06-11T06:46:24.131Z,27.55
2023-06-11T06:47:24.221Z,27.46
2023-06-11T06:48:24.200Z,27.57
2023-06-11T06:49:24.102Z,27.57
2023-06-11T06:50:24.085Z,27.55
2023-06-11T06:51:24.142Z,27.64
2023-06-11T06:52:24.086Z,27.57
2023-06-11T06:53:24.086Z,27.71
2023-06-11T06:54:24.087Z,27.72
2023-06-11T06:55:24.104Z,27.74
2023-06-11T06:56:24.107Z,27.80
2023-06-11T06:57:24.123Z,27.79
2023-06-11T06:58:24.088Z,27.84
2023-06-11T06:59:24.096Z,27.87
2023-06-11T07:00:24.096Z,27.86
2023-06-11T07:01:24.223Z,27.98
2023-06-11T07:02:24.163Z,27.94
2023-06-11T07:03:24.123Z,28.03
2023-06-11T07:04:24.121Z,28.01
2023-06-11T07:05:24.160Z,28.02
2023-06-11T07:06:24.139Z,28.09
2023-06-11T07:07:24.111Z,28.08
2023-06-11T07:08:24.151Z,28.20
2023-06-11T07:09:24.121Z,28.18
2023-06-11T07:10:24.103Z,28.24
2023-06-11T07:11:24.156Z,28.20
2023-06-11T07:12:24.140Z,28.28
2023-06-11T07:13:24.122Z,28.26
2023-06-11T07:14:24.177Z,28.30
2023-06-11T07:15:24.142Z,28.35
2023-06-11T07:16:24.161Z,28.43
2023-06-11T07:17:24.137Z,28.45
2023-06-11T07:18:24.114Z,28.45
2023-06-11T07:19:24.200Z,28.49
2023-06-11T07:20:24.210Z,28.53
2023-06-11T07:21:24.138Z,28.54
2023-06-11T07:22:24.123Z,28.60
2023-06-11T07:23:24.119Z,28.65
2023-06-11T07:24:24.288Z,28.70
2023-06-11T07:25:24.182Z,28.70
2023-06-11T07:27:31.027Z,28.85
2023-06-11T10:29:59.306Z,33.59
2023-06-11T10:30:59.273Z,33.71
2023-06-11T10:31:59.277Z,33.73
2023-06-11T10:32:59.543Z,33.78
2023-06-11T10:33:59.466Z,33.78
2023-06-11T10:34:59.387Z,33.84
2023-06-11T10:35:59.297Z,33.89
2023-06-11T10:36:59.289Z,33.83
2023-06-11T10:37:59.346Z,33.90
2023-06-11T10:38:59.320Z,33.92
2023-06-11T10:39:59.305Z,33.93
2023-06-11T10:40:59.313Z,34.02
2023-06-11T10:41:59.328Z,34.02
2023-06-11T10:42:59.344Z,34.05
2023-06-11T10:43:59.346Z,34.14
2023-06-11T10:44:59.351Z,34.11
2023-06-11T10:45:59.358Z,34.14
2023-06-11T10:46:59.362Z,34.21
2023-06-11T10:47:59.453Z,34.24
2023-06-11T10:48:59.378Z,34.32
2023-06-11T10:49:59.388Z,34.37
2023-06-11T10:50:59.380Z,34.39
2023-06-11T10:51:59.393Z,34.49
2023-06-11T10:52:59.426Z,34.51
2023-06-11T10:53:59.431Z,34.56
2023-06-11T10:54:59.392Z,34.58
2023-06-11T10:55:59.403Z,34.67
2023-06-11T10:56:59.408Z,34.67
2023-06-11T10:57:59.437Z,34.69
2023-06-11T10:58:59.449Z,34.89
2023-06-11T10:59:59.441Z,34.81
2023-06-11T11:00:59.412Z,34.77
2023-06-11T11:01:59.528Z,34.86
2023-06-11T11:03:00.737Z,34.81
2023-06-11T11:03:59.506Z,34.97
2023-06-11T11:04:59.457Z,34.94
2023-06-11T11:05:59.459Z,35.05
2023-06-11T11:06:59.492Z,35.11
2023-06-11T11:07:59.452Z,35.23
2023-06-11T11:08:59.469Z,35.21
2023-06-11T11:09:59.496Z,35.26
2023-06-11T11:10:59.467Z,35.40
2023-06-11T11:11:59.490Z,35.42
2023-06-11T11:12:59.478Z,35.46
2023-06-11T11:14:01.340Z,35.43
2023-06-11T11:14:59.497Z,35.53
2023-06-11T11:15:59.515Z,35.58
2023-06-11T11:16:59.734Z,35.62
2023-06-11T11:17:59.669Z,35.65
2023-06-11T11:18:59.525Z,35.77
2023-06-11T11:19:59.530Z,35.68
2023-06-11T11:20:59.554Z,35.87
2023-06-11T11:21:59.536Z,35.80
2023-06-11T11:22:59.597Z,35.90
2023-06-11T11:23:59.590Z,35.94
2023-06-11T11:24:59.551Z,35.96
2023-06-11T11:25:59.566Z,36.15
2023-06-11T11:26:59.613Z,36.18
2023-06-11T11:27:59.590Z,36.18
2023-06-11T11:28:59.608Z,36.18
2023-06-11T11:30:03.177Z,36.26
2023-06-11T11:30:59.678Z,36.44
2023-06-11T11:31:59.639Z,36.44
2023-06-11T11:32:59.661Z,36.56
2023-06-11T11:33:59.654Z,36.56
2023-06-11T11:34:59.631Z,36.70
2023-06-11T11:36:02.216Z,36.70
2023-06-11T11:36:59.649Z,36.77
2023-06-11T11:37:59.683Z,36.81
2023-06-11T11:38:59.686Z,36.84
2023-06-11T11:39:59.674Z,36.97
2023-06-11T11:40:59.707Z,37.05
2023-06-11T11:42:02.020Z,37.12
2023-06-11T11:42:59.726Z,37.07
2023-06-11T11:43:59.737Z,37.26
2023-06-11T11:44:59.738Z,37.24
2023-06-11T11:45:59.775Z,37.31
2023-06-11T11:46:59.742Z,37.39
2023-06-11T11:48:03.182Z,37.46
2023-06-11T11:48:59.753Z,37.57
2023-06-11T11:49:59.786Z,37.66
2023-06-11T11:50:59.766Z,37.81
2023-06-11T11:51:59.774Z,37.87
2023-06-11T11:52:59.801Z,37.91
2023-06-11T11:54:03.319Z,38.02
2023-06-11T11:54:59.804Z,38.02
2023-06-11T11:56:06.014Z,37.98
2023-06-11T11:56:59.820Z,38.17
2023-06-11T11:57:59.817Z,38.22
2023-06-11T11:58:59.853Z,38.35
2023-06-11T11:59:59.867Z,38.35
2023-06-11T12:00:59.847Z,38.50
2023-06-11T12:01:59.861Z,38.56
2023-06-11T12:02:59.963Z,38.62
2023-06-11T12:03:59.999Z,38.62
2023-06-11T12:04:59.879Z,38.62
2023-06-11T12:06:00.025Z,38.62
2023-06-11T12:06:59.910Z,38.62
2023-06-11T12:07:59.919Z,38.61
2023-06-11T12:08:59.975Z,38.70
2023-06-11T12:10:03.435Z,38.68
2023-06-11T12:10:59.950Z,38.74
2023-06-11T12:12:05.570Z,38.71
2023-06-11T12:12:59.981Z,38.81
2023-06-11T12:14:00.001Z,38.78
2023-06-11T12:14:59.973Z,38.85
2023-06-11T12:16:03.881Z,38.73
2023-06-11T12:17:00.039Z,38.85
2023-06-11T12:18:00.054Z,38.97
2023-06-11T12:19:14.454Z,39.00
2023-06-11T12:20:00.014Z,39.06
2023-06-11T12:21:00.052Z,39.11
2023-06-11T12:22:00.101Z,39.28
2023-06-11T12:23:00.042Z,39.23
2023-06-11T12:24:00.170Z,39.34
2023-06-11T12:25:00.102Z,39.37
2023-06-11T12:26:00.098Z,39.46
2023-06-11T12:27:00.134Z,39.50
2023-06-11T12:28:00.142Z,39.64
2023-06-11T12:29:00.118Z,39.68
2023-06-11T12:30:00.217Z,39.79
2023-06-11T12:31:00.167Z,39.83
2023-06-11T12:32:00.250Z,39.90
2023-06-11T12:33:00.281Z,39.94
2023-06-11T12:34:00.154Z,39.91
2023-06-11T12:35:00.182Z,39.93
2023-06-11T12:36:00.194Z,40.12
2023-06-11T12:37:00.172Z,40.16
2023-06-11T12:38:00.220Z,40.20
2023-06-11T12:39:00.198Z,40.22
2023-06-11T12:40:00.245Z,40.38
2023-06-11T12:41:00.234Z,40.27
2023-06-11T12:42:00.247Z,40.40
2023-06-11T12:43:00.689Z,40.12
2023-06-11T12:44:00.287Z,40.25
2023-06-11T12:45:00.421Z,40.18
2023-06-11T12:46:00.335Z,40.24
2023-06-11T12:47:00.278Z,40.30
2023-06-11T12:48:00.372Z,40.38
2023-06-11T12:49:00.291Z,40.34
2023-06-11T12:50:00.320Z,40.47
2023-06-11T12:51:00.330Z,40.54
2023-06-11T12:52:00.381Z,40.59
2023-06-11T12:53:00.336Z,40.66
2023-06-11T12:54:00.390Z,40.66
2023-06-11T12:55:00.389Z,40.59
2023-06-11T12:56:00.473Z,40.60
2023-06-11T12:57:00.386Z,40.62
2023-06-11T12:58:00.442Z,40.70
2023-06-11T12:59:00.427Z,40.78
2023-06-11T13:00:00.414Z,40.88
2023-06-11T13:01:00.481Z,40.91
2023-06-11T13:02:00.466Z,40.98
2023-06-11T13:03:00.481Z,41.01
2023-06-11T13:04:00.485Z,41.07
2023-06-11T13:05:00.667Z,41.04
2023-06-11T13:06:00.511Z,41.25
2023-06-11T13:07:00.517Z,41.26
2023-06-11T13:08:00.524Z,41.31
2023-06-11T13:09:00.516Z,41.26
2023-06-11T13:10:00.560Z,41.20
2023-06-11T13:11:00.547Z,41.28
2023-06-11T13:12:00.612Z,41.34
2023-06-11T13:13:00.552Z,41.45
2023-06-11T13:14:00.561Z,41.49
2023-06-11T13:15:00.660Z,41.53
2023-06-11T13:16:00.661Z,41.65
2023-06-11T13:17:00.653Z,41.82
2023-06-11T13:18:00.738Z,41.88
2023-06-11T13:19:00.649Z,41.98
2023-06-11T13:20:00.641Z,42.06
2023-06-11T13:21:00.692Z,42.10
2023-06-11T13:22:00.718Z,42.29
2023-06-11T13:23:00.663Z,42.33
2023-06-11T13:24:00.737Z,42.41
2023-06-11T13:25:00.716Z,42.49
2023-06-11T13:26:00.713Z,42.60
2023-06-11T13:27:00.706Z,42.61
2023-06-11T13:28:00.737Z,42.74
2023-06-11T13:29:00.756Z,42.73
2023-06-11T13:30:00.763Z,42.85
2023-06-11T13:31:00.789Z,42.86
2023-06-11T13:32:00.776Z,42.94
2023-06-11T13:33:00.877Z,42.94
2023-06-11T13:34:00.789Z,43.05
2023-06-11T13:35:00.855Z,43.00
2023-06-11T13:36:00.923Z,43.11
2023-06-11T13:38:33.385Z,43.15
2023-06-11T13:39:33.456Z,43.28
2023-06-11T13:40:33.405Z,43.25
2023-06-11T13:41:33.437Z,43.32
2023-06-11T13:42:33.448Z,43.28
2023-06-11T13:43:33.440Z,43.40
2023-06-11T13:44:33.496Z,43.43
2023-06-11T13:45:33.489Z,43.44
2023-06-11T13:46:33.517Z,43.51
2023-06-11T13:47:33.560Z,43.54
2023-06-11T13:48:33.517Z,43.54
2023-06-11T13:49:33.527Z,43.51
2023-06-11T13:50:33.563Z,43.58
2023-06-11T13:51:33.545Z,43.61
2023-06-11T13:52:33.596Z,43.61
2023-06-11T13:53:33.594Z,43.69
2023-06-11T13:54:33.578Z,43.64
2023-06-11T13:55:33.587Z,43.62
2023-06-11T13:56:33.657Z,43.69
2023-06-11T13:57:33.653Z,43.71
2023-06-11T13:58:33.634Z,43.59
2023-06-11T13:59:33.643Z,43.64
2023-06-11T14:00:33.708Z,43.69
2023-06-11T14:01:33.951Z,43.71
2023-06-11T14:02:33.762Z,43.80
2023-06-11T14:03:33.809Z,43.73
2023-06-11T14:04:33.727Z,43.71
2023-06-11T14:05:33.764Z,43.77
2023-06-11T14:06:33.787Z,43.78
2023-06-11T14:07:33.803Z,43.71
2023-06-11T14:08:33.760Z,43.57
2023-06-11T14:09:33.814Z,43.36
2023-06-11T14:10:33.825Z,43.27
2023-06-11T14:11:33.817Z,43.39
2023-06-11T14:12:33.817Z,43.44
2023-06-11T14:13:33.872Z,43.44
2023-06-11T14:14:33.875Z,43.51
2023-06-11T14:15:33.878Z,43.49
2023-06-11T14:16:33.938Z,43.51
2023-06-11T14:17:33.921Z,43.47
2023-06-11T14:18:33.919Z,43.57
2023-06-11T14:19:33.902Z,43.62
2023-06-11T14:20:33.929Z,43.61
2023-06-11T14:21:33.945Z,43.58
2023-06-11T14:22:33.945Z,43.55
2023-06-11T14:23:34.046Z,43.58
2023-06-11T14:24:34.035Z,43.62
2023-06-11T14:25:33.992Z,43.58
2023-06-11T14:26:33.997Z,43.64
2023-06-11T14:27:34.041Z,43.61
2023-06-11T14:28:34.026Z,43.40
2023-06-11T14:29:34.061Z,43.13
2023-06-11T14:30:34.053Z,42.97
2023-06-11T14:31:34.138Z,42.73
2023-06-11T14:32:34.364Z,42.71
2023-06-11T14:33:34.081Z,42.78
2023-06-11T14:34:34.129Z,42.90
2023-06-11T14:35:34.093Z,42.90
2023-06-11T14:36:34.101Z,42.89
2023-06-11T14:37:34.119Z,42.94
2023-06-11T14:38:34.169Z,42.95
2023-06-11T14:39:34.195Z,42.92
2023-06-11T14:40:34.157Z,42.94
2023-06-11T14:41:34.158Z,42.92
2023-06-11T14:42:34.202Z,42.90
2023-06-11T14:43:34.205Z,42.85
2023-06-11T14:44:34.258Z,42.98
2023-06-11T14:45:34.246Z,42.94
2023-06-11T14:46:34.262Z,42.98
2023-06-11T14:47:34.414Z,42.92
2023-06-11T14:48:34.236Z,42.92
2023-06-11T14:49:34.281Z,42.95
2023-06-11T14:50:34.265Z,42.86
2023-06-11T14:51:34.284Z,42.88
2023-06-11T14:52:34.308Z,42.79
2023-06-11T14:53:34.352Z,42.82
2023-06-11T14:54:34.315Z,42.79
2023-06-11T14:55:34.333Z,42.83
2023-06-11T14:56:34.363Z,42.73
2023-06-11T14:57:34.340Z,42.71
2023-06-11T14:59:34.375Z,42.69
2023-06-11T15:00:34.433Z,42.67
2023-06-11T15:01:34.548Z,42.59
2023-06-11T15:02:34.509Z,42.59
2023-06-11T15:03:34.474Z,42.57
2023-06-11T15:04:34.459Z,42.51
2023-06-11T15:05:34.482Z,42.48
2023-06-11T15:06:34.488Z,42.44
2023-06-11T15:07:35.988Z,42.35
2023-06-11T15:08:34.472Z,42.26
2023-06-11T15:09:34.497Z,42.18
2023-06-11T15:10:34.520Z,42.20
2023-06-11T15:11:34.511Z,42.13
2023-06-11T15:12:34.526Z,42.01
2023-06-11T15:13:34.541Z,42.01
2023-06-11T15:14:34.554Z,41.89
2023-06-11T15:15:34.570Z,41.80
2023-06-11T15:16:34.629Z,41.72
2023-06-11T15:17:34.622Z,41.65
2023-06-11T15:18:34.595Z,41.53
2023-06-11T15:19:34.664Z,41.53
2023-06-11T15:20:34.632Z,41.40
2023-06-11T15:21:34.684Z,41.35
2023-06-11T15:22:34.661Z,41.25
2023-06-11T15:23:34.739Z,41.16
2023-06-11T15:24:34.680Z,41.12
2023-06-11T15:25:34.699Z,41.00
2023-06-11T15:26:34.711Z,40.96
2023-06-11T15:27:34.705Z,40.75
2023-06-11T15:28:34.895Z,40.59
2023-06-11T15:29:34.738Z,40.51
2023-06-11T15:30:34.722Z,40.36
2023-06-11T15:31:34.781Z,40.25
2023-06-11T15:32:34.936Z,40.09
2023-06-11T15:33:34.830Z,39.96
2023-06-11T15:34:34.767Z,39.94
2023-06-11T15:35:34.797Z,39.79
2023-06-11T15:36:34.804Z,39.68
2023-06-11T15:37:34.805Z,39.50
2023-06-11T15:38:34.830Z,39.31
2023-06-11T15:39:34.823Z,39.35
2023-06-11T15:40:34.832Z,39.27
2023-06-11T15:41:34.904Z,39.01
2023-06-11T15:42:34.893Z,38.87
2023-06-11T15:43:34.842Z,38.77
2023-06-11T15:44:34.880Z,38.78
2023-06-11T15:45:34.888Z,38.59
2023-06-11T15:46:34.936Z,38.55
2023-06-11T15:47:35.126Z,38.37
2023-06-11T15:48:34.970Z,38.30
2023-06-11T15:49:34.912Z,38.15
2023-06-11T15:50:34.931Z,37.96
2023-06-11T15:51:34.962Z,37.98
2023-06-11T15:52:34.915Z,37.90
2023-06-11T15:53:34.924Z,37.80
2023-06-11T15:54:34.992Z,37.68
2023-06-11T15:55:34.993Z,37.59
2023-06-11T15:56:34.954Z,37.45
2023-06-11T15:57:34.974Z,37.31
2023-06-11T15:58:34.972Z,37.27
2023-06-11T15:59:35.032Z,37.17
2023-06-11T16:00:35.022Z,37.11
2023-06-11T16:01:35.064Z,37.05
2023-06-11T16:02:34.999Z,36.89
2023-06-11T16:03:35.123Z,36.78
2023-06-11T16:04:35.089Z,36.71
2023-06-11T16:05:35.072Z,36.68
2023-06-11T16:06:35.018Z,36.53
2023-06-11T16:07:35.099Z,36.53
2023-06-11T16:08:35.028Z,36.39
2023-06-11T16:09:35.101Z,36.34
2023-06-11T16:10:35.078Z,36.25
2023-06-11T16:11:35.069Z,36.24
2023-06-11T16:12:35.093Z,36.08
2023-06-11T16:13:35.096Z,35.98
2023-06-11T16:14:35.119Z,35.99
2023-06-11T16:15:35.260Z,35.87
2023-06-11T16:16:35.287Z,35.74
2023-06-11T16:29:14.039Z,34.91
2023-06-11T16:30:14.343Z,34.78
2023-06-11T16:31:14.019Z,34.77
2023-06-11T16:32:13.980Z,34.74
2023-06-11T16:33:14.058Z,34.64
2023-06-11T16:34:14.053Z,34.58
2023-06-11T16:35:14.444Z,34.55
2023-06-11T16:36:14.015Z,34.52
2023-06-11T16:37:14.004Z,34.43
2023-06-11T16:38:14.008Z,34.39
2023-06-11T16:39:26.729Z,34.33
2023-06-11T16:40:14.028Z,34.24
2023-06-11T16:41:14.036Z,34.19
2023-06-11T16:42:14.070Z,34.06
2023-06-11T16:43:14.032Z,34.10
2023-06-11T16:44:14.020Z,34.02
2023-06-11T16:45:14.318Z,33.96
2023-06-11T16:46:14.074Z,33.90
2023-06-11T16:47:14.097Z,33.85
2023-06-11T16:48:14.110Z,33.85
2023-06-11T16:49:14.126Z,33.89
2023-06-11T16:50:14.403Z,33.74
2023-06-11T16:51:14.096Z,33.69
2023-06-11T16:52:14.088Z,33.63
2023-06-11T16:53:14.062Z,33.63
2023-06-11T16:54:16.540Z,33.65
2023-06-11T16:55:14.474Z,33.56
2023-06-11T16:56:14.103Z,33.53
2023-06-11T16:57:14.090Z,33.55
2023-06-11T16:58:14.125Z,33.50
2023-06-11T16:59:14.107Z,33.44
2023-06-11T17:00:14.353Z,33.36
2023-06-11T17:01:14.184Z,33.34
2023-06-11T17:02:14.107Z,33.31
2023-06-11T17:03:14.163Z,33.31
2023-06-11T17:04:14.195Z,33.29
2023-06-11T17:05:14.152Z,33.24
2023-06-11T17:06:14.113Z,33.06
2023-06-11T17:07:14.117Z,33.09
2023-06-11T17:08:14.118Z,33.02
2023-06-11T17:09:14.242Z,33.03
2023-06-11T17:10:14.519Z,32.94
2023-06-11T17:11:14.144Z,33.08
2023-06-11T17:12:14.131Z,32.94
2023-06-11T17:13:14.140Z,32.89
2023-06-11T17:14:14.150Z,32.90
2023-06-11T17:15:14.264Z,32.83
2023-06-11T17:16:14.254Z,32.76
2023-06-11T17:17:14.191Z,32.79
2023-06-11T17:18:14.191Z,32.76
2023-06-11T17:19:14.158Z,32.67
2023-06-11T17:20:14.546Z,32.71
2023-06-11T17:21:14.196Z,32.69
2023-06-11T17:22:14.190Z,32.65
2023-06-11T17:23:14.171Z,32.61
2023-06-11T17:24:14.229Z,32.57
2023-06-11T17:25:14.581Z,32.54
2023-06-11T17:26:16.565Z,32.54
2023-06-11T17:27:14.171Z,32.43
2023-06-11T17:28:14.185Z,32.43
2023-06-11T17:29:14.208Z,32.52
2023-06-11T17:30:14.441Z,32.37
2023-06-11T17:31:14.272Z,32.34
2023-06-11T17:32:14.250Z,32.27
2023-06-11T17:33:14.317Z,32.31
2023-06-11T17:34:14.232Z,32.19
2023-06-11T17:35:14.375Z,32.31
2023-06-11T17:36:14.211Z,32.25
2023-06-11T17:37:14.215Z,32.19
2023-06-11T17:38:14.218Z,32.09
2023-06-11T17:39:14.264Z,32.12
2023-06-11T17:40:16.618Z,32.17
2023-06-11T17:41:14.222Z,32.03
2023-06-11T17:42:14.247Z,32.05
2023-06-11T17:43:14.251Z,32.03
2023-06-11T17:44:14.258Z,32.00
2023-06-11T17:45:14.226Z,32.00
2023-06-11T17:46:14.317Z,31.97
2023-06-11T17:47:14.249Z,32.00
2023-06-11T17:48:14.281Z,31.98
2023-06-11T17:49:14.288Z,31.88
2023-06-11T17:50:14.458Z,31.87
2023-06-11T17:51:14.837Z,31.87
2023-06-11T17:52:14.255Z,31.88
2023-06-11T17:53:14.277Z,31.87
2023-06-11T17:54:14.252Z,31.72
2023-06-11T17:55:14.533Z,31.71
2023-06-11T17:56:14.266Z,31.75
2023-06-11T17:57:14.291Z,31.71
2023-06-11T17:58:14.277Z,31.78
2023-06-11T17:59:14.270Z,31.71
2023-06-11T18:00:14.563Z,31.71
2023-06-11T18:01:14.368Z,31.50
2023-06-11T18:02:14.316Z,31.58
2023-06-11T18:03:14.322Z,31.56
2023-06-11T18:04:14.318Z,31.58
2023-06-11T18:05:14.576Z,31.56
2023-06-11T18:06:16.860Z,31.50
2023-06-11T18:07:14.290Z,31.41
2023-06-11T18:08:14.330Z,31.49
2023-06-11T18:09:14.303Z,31.45
2023-06-11T18:10:14.290Z,31.45
2023-06-11T18:11:14.305Z,31.33
2023-06-11T18:12:14.310Z,31.38
2023-06-11T18:13:14.317Z,31.41
2023-06-11T18:14:14.305Z,31.30
2023-06-11T18:15:31.346Z,31.33
2023-06-11T18:16:14.338Z,31.30
2023-06-11T18:17:14.324Z,31.28
2023-06-11T18:18:14.327Z,31.26
2023-06-11T18:19:14.357Z,31.25
2023-06-11T18:20:14.331Z,31.22
2023-06-11T18:21:14.343Z,31.28
2023-06-11T18:22:14.343Z,31.22
2023-06-11T18:23:14.364Z,31.22
2023-06-11T18:24:14.404Z,31.13
2023-06-11T18:25:14.669Z,31.15
2023-06-11T18:26:14.453Z,31.12
2023-06-11T18:27:14.401Z,31.15
2023-06-11T18:28:14.333Z,31.08
2023-06-11T18:29:14.344Z,31.12
2023-06-11T18:30:14.670Z,31.06
2023-06-11T18:31:14.357Z,31.04
2023-06-11T18:32:14.355Z,31.04
2023-06-11T18:33:14.416Z,30.97
2023-06-11T18:34:14.349Z,30.97
2023-06-11T18:35:14.358Z,30.94
2023-06-11T18:36:14.358Z,30.89
2023-06-11T18:37:14.438Z,31.01
2023-06-11T18:38:14.351Z,30.86
2023-06-11T18:39:14.357Z,30.86
2023-06-11T18:40:14.750Z,30.88
2023-06-11T18:41:14.370Z,30.82
2023-06-11T18:42:14.390Z,30.86
2023-06-11T18:43:14.376Z,30.85
2023-06-11T18:44:14.394Z,30.85
2023-06-11T18:45:14.387Z,30.81
2023-06-11T18:46:14.457Z,30.86
2023-06-11T18:47:14.407Z,30.79
2023-06-11T18:48:14.491Z,30.71
2023-06-11T18:49:14.426Z,30.71
2023-06-11T18:50:14.719Z,30.73
2023-06-11T18:51:14.376Z,30.71
2023-06-11T18:52:14.392Z,30.69
2023-06-11T18:53:14.478Z,30.67
2023-06-11T18:54:14.418Z,30.67
2023-06-11T18:55:14.406Z,30.60
2023-06-11T18:56:14.389Z,30.57
2023-06-11T18:57:14.397Z,30.52
2023-06-11T18:58:17.413Z,30.59
2023-06-11T18:59:14.436Z,30.56
2023-06-11T19:00:14.727Z,30.54
2023-06-11T19:01:14.442Z,30.54
2023-06-11T19:02:14.398Z,30.51
2023-06-11T19:03:14.482Z,30.39
2023-06-11T19:04:14.549Z,30.48
2023-06-11T19:05:14.474Z,30.45
2023-06-11T19:06:14.429Z,30.37
2023-06-11T19:07:14.432Z,30.40
2023-06-11T19:08:14.486Z,30.34
2023-06-11T19:09:14.440Z,30.37
2023-06-11T19:10:14.746Z,30.31
2023-06-11T19:11:14.443Z,30.29
2023-06-11T19:12:14.430Z,30.24
2023-06-11T19:13:14.445Z,30.26
2023-06-11T19:14:14.423Z,30.21
2023-06-11T19:15:14.457Z,30.25
2023-06-11T19:16:14.453Z,30.19
2023-06-11T19:17:14.514Z,30.22
2023-06-11T19:18:14.477Z,30.11
2023-06-11T19:19:14.431Z,30.13
2023-06-11T19:20:14.607Z,30.10
2023-06-11T19:21:14.478Z,30.10
2023-06-11T19:22:14.443Z,30.13
2023-06-11T19:23:14.472Z,30.10
2023-06-11T19:24:14.487Z,30.09
2023-06-11T19:25:14.467Z,30.07
2023-06-11T19:26:14.486Z,30.04
2023-06-11T19:27:14.504Z,29.97
2023-06-11T19:28:14.490Z,29.97
2023-06-11T19:29:14.468Z,29.91
2023-06-11T19:30:14.861Z,29.95
2023-06-11T19:31:14.574Z,29.95
2023-06-11T19:32:14.462Z,29.89
2023-06-11T19:33:14.464Z,29.85
2023-06-11T19:34:17.010Z,29.91
2023-06-11T19:35:14.500Z,29.84
2023-06-11T19:36:14.602Z,29.89
2023-06-11T19:37:14.493Z,29.84
2023-06-11T19:38:14.492Z,29.84
2023-06-11T19:39:14.467Z,29.88
2023-06-11T19:40:14.878Z,29.84
2023-06-11T19:41:15.819Z,29.67
2023-06-11T19:42:14.471Z,29.79
2023-06-11T19:43:14.472Z,29.70
2023-06-11T19:44:14.477Z,29.69
2023-06-11T19:45:14.503Z,29.65
2023-06-11T19:46:14.516Z,29.63
2023-06-11T19:47:14.517Z,29.70
2023-06-11T19:48:14.575Z,29.65
2023-06-11T19:49:14.515Z,29.57
2023-06-11T19:50:14.831Z,29.55
2023-06-11T19:51:14.508Z,29.58
2023-06-11T19:52:14.539Z,29.58
2023-06-11T19:53:14.513Z,29.52
2023-06-11T19:54:14.497Z,29.47
2023-06-11T19:55:14.561Z,29.45
2023-06-11T19:56:14.512Z,29.48
2023-06-11T19:57:14.544Z,29.54
2023-06-11T19:58:14.518Z,29.51
2023-06-11T19:59:15.186Z,29.43
2023-06-11T20:00:14.836Z,29.43
2023-06-11T20:01:14.502Z,29.39
2023-06-11T20:02:14.715Z,29.39
2023-06-11T20:03:14.588Z,29.42
2023-06-11T20:04:14.538Z,29.39
2023-06-11T20:05:14.610Z,29.38
2023-06-11T20:06:14.529Z,29.40
2023-06-11T20:07:14.521Z,29.32
2023-06-11T20:08:14.552Z,29.23
2023-06-11T20:09:14.519Z,29.33
2023-06-11T20:10:14.777Z,29.30
2023-06-11T20:11:14.538Z,29.15
2023-06-11T20:12:14.565Z,29.21
2023-06-11T20:13:14.541Z,29.20
2023-06-11T20:14:14.544Z,29.21
2023-06-11T20:15:14.552Z,29.21
2023-06-11T20:16:14.724Z,29.18
2023-06-11T20:17:14.522Z,29.11
2023-06-11T20:18:14.538Z,29.08
2023-06-11T20:19:14.545Z,29.06
2023-06-11T20:20:14.796Z,29.10
2023-06-11T20:21:14.853Z,29.05
2023-06-11T20:22:14.622Z,29.02
2023-06-11T20:23:14.670Z,29.08
2023-06-11T20:24:14.582Z,29.01